createdAt,value
2022-08-09T00:00:21.316Z,98000.84
2022-08-09T00:02:51.712Z,97995.56
2022-08-09T00:06:17.818Z,97987.28
2022-08-09T00:08:31.322Z,97992.38
2022-08-09T00:11:00.439Z,97993.34
2022-08-09T00:13:31.599Z,97995.13
2022-08-09T00:16:02.498Z,97993.28
2022-08-09T00:18:34.772Z,97992.31
2022-08-09T00:21:08.426Z,97989.50
2022-08-09T00:23:57.426Z,98000.63
2022-08-09T00:26:32.960Z,98004.66
2022-08-09T00:29:02.939Z,98000.69
2022-08-09T00:31:59.132Z,98005.00
2022-08-09T00:34:19.404Z,97997.88
2022-08-09T00:36:48.979Z,97994.72
2022-08-09T00:40:14.161Z,98001.56
2022-08-09T00:44:15.930Z,97999.94
2022-08-09T00:44:53.569Z,97998.44
2022-08-09T00:47:24.573Z,97995.31
2022-08-09T00:49:55.007Z,97995.31
2022-08-09T00:52:30.091Z,97993.25
2022-08-09T00:55:02.034Z,97992.25
2022-08-09T00:57:34.762Z,97996.91
2022-08-09T01:00:21.391Z,97990.56
2022-08-09T01:02:53.762Z,97997.38
2022-08-09T01:05:51.655Z,97996.97
2022-08-09T01:08:35.169Z,97998.28
2022-08-09T01:11:38.414Z,97999.22
2022-08-09T01:14:23.510Z,98001.59
2022-08-09T01:16:55.638Z,97989.16
2022-08-09T01:20:01.677Z,98000.16
2022-08-09T01:22:51.288Z,98006.59
2022-08-09T01:25:48.841Z,98009.19
2022-08-09T01:28:21.799Z,98013.91
2022-08-09T01:30:53.256Z,98007.13
2022-08-09T01:33:26.433Z,98003.59
2022-08-09T01:36:02.883Z,98007.22
2022-08-09T01:38:36.759Z,98003.25
2022-08-09T01:41:28.715Z,98003.69
2022-08-09T01:43:59.089Z,97996.34
2022-08-09T01:46:33.571Z,98002.47
2022-08-09T01:49:12.891Z,98004.59
2022-08-09T01:52:06.963Z,97999.97
2022-08-09T01:54:50.928Z,98002.53
2022-08-09T01:57:29.504Z,98001.56
2022-08-09T02:00:35.157Z,97998.25
2022-08-09T02:03:00.048Z,98006.56
2022-08-09T02:05:37.768Z,98004.22
2022-08-09T02:08:35.438Z,98006.16
2022-08-09T02:11:17.157Z,98004.91
2022-08-09T02:14:06.484Z,98008.50
2022-08-09T02:16:58.996Z,98016.56
2022-08-09T02:19:38.939Z,98010.25
2022-08-09T02:22:35.838Z,98022.06
2022-08-09T02:25:08.841Z,98023.78
2022-08-09T02:27:57.396Z,98018.06
2022-08-09T02:30:29.805Z,98030.97
2022-08-09T02:33:01.307Z,98023.78
2022-08-09T02:36:01.986Z,98022.06
2022-08-09T02:38:28.892Z,98021.44
2022-08-09T02:41:02.600Z,98024.19
2022-08-09T02:43:51.804Z,98019.59
2022-08-09T02:46:27.889Z,98024.00
2022-08-09T02:49:03.578Z,98020.22
2022-08-09T02:51:40.200Z,98021.91
2022-08-09T02:54:13.845Z,98009.84
2022-08-09T02:56:50.988Z,98022.97
2022-08-09T02:59:26.266Z,98016.03
2022-08-09T03:02:09.752Z,98021.34
2022-08-09T03:04:46.983Z,98023.91
2022-08-09T03:07:19.314Z,98021.16
2022-08-09T03:09:54.481Z,98022.66
2022-08-09T03:12:24.849Z,98035.34
2022-08-09T03:14:53.435Z,98043.56
2022-08-09T03:17:26.913Z,98034.94
2022-08-09T03:20:03.425Z,98037.88
2022-08-09T03:22:42.194Z,98034.13
2022-08-09T03:25:26.578Z,98043.19
2022-08-09T03:28:02.883Z,98049.50
2022-08-09T03:30:33.941Z,98040.84
2022-08-09T03:33:12.699Z,98048.25
2022-08-09T03:36:13.172Z,98055.88
2022-08-09T03:38:43.123Z,98046.34
2022-08-09T03:41:16.061Z,98050.38
2022-08-09T03:43:51.910Z,98057.13
2022-08-09T03:46:31.571Z,98059.66
2022-08-09T03:49:04.242Z,98062.41
2022-08-09T03:51:55.032Z,98074.03
2022-08-09T03:54:34.578Z,98071.94
2022-08-09T03:57:18.283Z,98067.06
2022-08-09T03:59:54.859Z,98068.75
2022-08-09T04:02:27.839Z,98078.06
2022-08-09T04:05:06.260Z,98078.06
2022-08-09T04:07:53.247Z,98068.31
2022-08-09T04:10:29.578Z,98079.72
2022-08-09T04:13:01.223Z,98078.44
2022-08-09T04:16:17.609Z,98085.41
2022-08-09T04:18:22.018Z,98086.06
2022-08-09T04:20:51.461Z,98093.69
2022-08-09T04:23:24.425Z,98088.19
2022-08-09T04:25:53.806Z,98090.72
2022-08-09T04:28:34.027Z,98097.47
2022-08-09T04:31:09.928Z,98090.50
2022-08-09T04:33:53.208Z,98099.59
2022-08-09T04:36:27.313Z,98097.25
2022-08-09T04:38:57.299Z,98099.13
2022-08-09T04:41:32.275Z,98095.09
2022-08-09T04:44:05.931Z,98100.34
2022-08-09T04:46:37.832Z,98108.78
2022-08-09T04:49:40.583Z,98113.81
2022-08-09T04:52:18.481Z,98112.31
2022-08-09T04:54:52.254Z,98122.66
2022-08-09T04:57:23.838Z,98111.19
2022-08-09T04:59:54.946Z,98123.41
2022-08-09T05:02:23.847Z,98126.75
2022-08-09T05:04:56.177Z,98128.25
2022-08-09T05:07:24.583Z,98127.81
2022-08-09T05:09:51.911Z,98126.09
2022-08-09T05:12:21.211Z,98126.88
2022-08-09T05:14:50.357Z,98123.44
2022-08-09T05:18:42.381Z,98134.63
2022-08-09T05:20:07.279Z,98141.78
2022-08-09T05:23:51.075Z,98148.09
2022-08-09T05:25:22.492Z,98152.13
2022-08-09T05:27:50.951Z,98144.63
2022-08-09T05:30:20.159Z,98149.19
2022-08-09T05:32:50.807Z,98155.47
2022-08-09T05:35:18.620Z,98156.72
2022-08-09T05:37:51.351Z,98150.16
2022-08-09T05:40:18.678Z,98157.31
2022-08-09T05:42:47.998Z,98150.53
2022-08-09T05:45:15.017Z,98155.09
2022-08-09T05:47:52.469Z,98148.63
2022-08-09T05:50:50.610Z,98147.84
2022-08-09T05:53:32.470Z,98154.59
2022-08-09T05:56:01.491Z,98160.06
2022-08-09T05:58:28.821Z,98163.16
2022-08-09T06:00:56.253Z,98165.53
2022-08-09T06:03:25.376Z,98161.56
2022-08-09T06:06:04.644Z,98166.78
2022-08-09T06:08:34.460Z,98164.75
2022-08-09T06:11:17.460Z,98162.03
2022-08-09T06:13:45.826Z,98157.41
2022-08-09T06:16:14.749Z,98154.81
2022-08-09T06:18:43.592Z,98166.22
2022-08-09T06:21:11.299Z,98154.13
2022-08-09T06:23:55.020Z,98156.16
2022-08-09T06:26:28.370Z,98151.66
2022-08-09T06:29:00.004Z,98146.88
2022-08-09T06:31:40.234Z,98148.94
2022-08-09T06:34:22.513Z,98149.31
2022-08-09T06:36:57.214Z,98155.00
2022-08-09T06:39:24.858Z,98160.19
2022-08-09T06:42:13.007Z,98160.00
2022-08-09T06:44:40.427Z,98162.34
2022-08-09T06:47:08.503Z,98160.19
2022-08-09T06:50:11.795Z,98148.06
2022-08-09T06:52:25.149Z,98159.28
2022-08-09T06:54:54.093Z,98149.66
2022-08-09T06:57:25.735Z,98151.84
2022-08-09T07:00:54.409Z,98146.91
2022-08-09T07:02:59.260Z,98148.72
2022-08-09T07:05:58.538Z,98141.75
2022-08-09T07:08:13.989Z,98146.50
2022-08-09T07:10:41.326Z,98147.53
2022-08-09T07:13:27.285Z,98139.25
2022-08-09T07:16:41.487Z,98149.34
2022-08-09T07:18:43.345Z,98143.38
2022-08-09T07:21:11.286Z,98146.97
2022-08-09T07:23:56.284Z,98140.28
2022-08-09T07:26:25.546Z,98141.19
2022-08-09T07:29:08.711Z,98141.84
2022-08-09T07:31:45.347Z,98149.06
2022-08-09T07:34:20.732Z,98147.16
2022-08-09T07:36:50.653Z,98149.28
2022-08-09T07:39:40.398Z,98142.56
2022-08-09T07:42:09.544Z,98150.09
2022-08-09T07:44:52.179Z,98143.16
2022-08-09T07:47:23.321Z,98146.00
2022-08-09T07:50:04.344Z,98144.16
2022-08-09T07:52:38.725Z,98141.78
2022-08-09T07:55:08.767Z,98136.19
2022-08-09T07:57:37.233Z,98141.22
2022-08-09T08:00:20.813Z,98145.38
2022-08-09T08:03:08.253Z,98141.78
2022-08-09T08:05:54.324Z,98133.28
2022-08-09T08:09:02.065Z,98136.31
2022-08-09T08:12:08.841Z,98131.50
2022-08-09T08:14:00.701Z,98138.63
2022-08-09T08:16:31.502Z,98137.09
2022-08-09T08:19:02.941Z,98139.72
2022-08-09T08:21:31.109Z,98134.28
2022-08-09T08:24:01.349Z,98136.56
2022-08-09T08:26:42.082Z,98129.88
2022-08-09T08:29:28.039Z,98126.88
2022-08-09T08:32:04.555Z,98116.72
2022-08-09T08:34:34.691Z,98127.13
2022-08-09T08:37:05.533Z,98129.72
2022-08-09T08:39:43.496Z,98122.81
2022-08-09T08:42:13.337Z,98121.47
2022-08-09T08:44:42.793Z,98129.22
2022-08-09T08:47:13.425Z,98127.63
2022-08-09T08:49:46.703Z,98114.91
2022-08-09T08:52:58.248Z,98116.63
2022-08-09T08:55:06.609Z,98122.22
2022-08-09T08:57:35.332Z,98111.03
2022-08-09T09:00:08.205Z,98089.84
2022-08-09T09:02:52.700Z,98098.56
2022-08-09T09:05:57.772Z,98102.81
2022-08-09T09:08:29.988Z,98098.69
2022-08-09T09:11:06.264Z,98100.38
2022-08-09T09:13:47.433Z,98098.41
2022-08-09T09:16:29.748Z,98091.69
2022-08-09T09:19:29.184Z,98093.88
2022-08-09T09:22:07.574Z,98087.78
2022-08-09T09:24:43.667Z,98083.28
2022-08-09T09:28:02.815Z,98084.16
2022-08-09T09:30:38.144Z,98086.69
2022-08-09T09:33:15.498Z,98080.88
2022-08-09T09:36:02.189Z,98067.22
2022-08-09T09:38:42.844Z,98068.84
2022-08-09T09:41:13.902Z,98065.78
2022-08-09T09:44:10.780Z,98061.38
2022-08-09T09:46:52.094Z,98055.56
2022-08-09T09:49:32.311Z,98048.31
2022-08-09T09:52:35.836Z,98045.50
2022-08-09T09:55:16.732Z,98039.94
2022-08-09T09:58:18.251Z,98036.03
2022-08-09T10:00:58.842Z,98026.50
2022-08-09T10:03:43.854Z,98025.66
2022-08-09T10:06:13.455Z,98028.13
2022-08-09T10:08:42.527Z,98025.06
2022-08-09T10:11:53.851Z,98012.00
2022-08-09T10:14:32.886Z,98016.44
2022-08-09T10:17:39.609Z,98009.38
2022-08-09T10:20:02.760Z,98003.44
2022-08-09T10:22:39.176Z,98013.41
2022-08-09T10:25:10.900Z,98004.34
2022-08-09T10:27:55.856Z,98002.06
2022-08-09T10:34:08.828Z,98006.03
2022-08-09T10:36:05.727Z,98010.06
2022-08-09T10:38:56.873Z,98004.34
2022-08-09T10:41:27.895Z,98000.19
2022-08-09T10:44:01.357Z,97999.88
2022-08-09T10:48:20.184Z,98003.50
2022-08-09T10:50:31.429Z,97998.47
2022-08-09T10:53:10.038Z,97996.84
2022-08-09T10:55:57.690Z,97995.22
2022-08-09T10:58:34.836Z,97994.94
2022-08-09T11:03:02.815Z,98001.66
2022-08-09T11:04:19.714Z,97996.94
2022-08-09T11:06:59.699Z,97994.16
2022-08-09T11:09:41.308Z,97988.59
2022-08-09T11:12:29.701Z,97992.19
2022-08-09T11:15:24.027Z,97986.31
2022-08-09T11:18:02.991Z,97986.56
2022-08-09T11:20:47.631Z,97993.22
2022-08-09T11:23:24.039Z,97991.75
2022-08-09T11:25:57.559Z,97990.06
2022-08-09T11:28:56.320Z,97991.22
2022-08-09T11:31:50.285Z,97974.44
2022-08-09T11:34:42.153Z,97964.97
2022-08-09T11:37:23.775Z,97955.47
2022-08-09T11:40:07.336Z,97969.94
2022-08-09T11:42:50.142Z,97958.78
2022-08-09T11:45:42.441Z,97946.97
2022-08-09T11:48:24.879Z,97939.41
2022-08-09T11:52:49.359Z,97939.47
2022-08-09T11:53:59.385Z,97945.31
2022-08-09T11:56:41.348Z,97934.78
2022-08-09T11:59:12.647Z,97934.91
2022-08-09T12:02:16.975Z,97928.59
2022-08-09T12:04:37.148Z,97921.03
2022-08-09T12:07:08.170Z,97921.19
2022-08-09T12:09:36.539Z,97910.19
2022-08-09T12:12:12.040Z,97900.91
2022-08-09T12:15:07.302Z,97904.34
2022-08-09T12:17:42.263Z,97894.38
2022-08-09T12:20:19.807Z,97900.09
2022-08-09T12:22:58.072Z,97898.31
2022-08-09T12:25:36.088Z,97890.75
2022-08-09T12:29:14.626Z,97894.41
2022-08-09T12:31:10.789Z,97898.00
2022-08-09T12:34:00.857Z,97894.63
2022-08-09T12:36:32.402Z,97869.91
2022-08-09T12:39:02.427Z,97878.16
2022-08-09T12:41:39.286Z,97880.84
2022-08-09T12:44:12.896Z,97885.72
2022-08-09T12:46:48.810Z,97871.81
2022-08-09T12:49:20.847Z,97889.31
2022-08-09T12:52:01.541Z,97870.72
2022-08-09T12:56:10.992Z,97864.91
2022-08-09T12:57:41.253Z,97869.22
2022-08-09T13:00:25.182Z,97867.59
2022-08-09T13:02:59.077Z,97861.78
2022-08-09T13:05:52.238Z,97856.31
2022-08-09T13:08:40.596Z,97847.47
2022-08-09T13:11:13.260Z,97845.63
2022-08-09T13:14:38.024Z,97853.25
2022-08-09T13:16:49.659Z,97855.59
2022-08-09T13:20:09.709Z,97850.91
2022-08-09T13:22:35.901Z,97856.66
2022-08-09T13:25:07.575Z,97857.13
2022-08-09T13:27:40.007Z,97856.06
2022-08-09T13:30:50.649Z,97856.88
2022-08-09T13:33:11.568Z,97881.47
2022-08-09T13:36:24.502Z,97861.16
2022-08-09T13:38:55.666Z,97847.56
2022-08-09T13:41:57.183Z,97858.28
2022-08-09T13:44:16.315Z,97853.13
2022-08-09T13:47:25.474Z,97837.06
2022-08-09T13:49:39.689Z,97855.53
2022-08-09T13:52:24.763Z,97850.00
2022-08-09T13:54:59.993Z,97860.84
2022-08-09T13:57:37.060Z,97855.06
2022-08-09T14:00:11.955Z,97863.22
2022-08-09T14:03:02.788Z,97861.63
2022-08-09T14:05:59.585Z,97870.56
2022-08-09T14:08:19.418Z,97862.34
2022-08-09T14:10:50.624Z,97862.72
2022-08-09T14:13:27.723Z,97860.09
2022-08-09T14:16:09.732Z,97847.00
2022-08-09T14:18:45.382Z,97847.34
2022-08-09T14:21:18.282Z,97843.81
2022-08-09T14:23:53.843Z,97845.56
2022-08-09T14:26:32.111Z,97842.72
2022-08-09T14:30:34.011Z,97842.38
2022-08-09T14:31:55.356Z,97843.25
2022-08-09T14:34:32.434Z,97849.31
2022-08-09T14:37:02.083Z,97841.72
2022-08-09T14:39:46.157Z,97847.78
2022-08-09T14:42:30.565Z,97837.38
2022-08-09T14:46:56.646Z,97835.97
2022-08-09T14:47:58.233Z,97836.16
2022-08-09T14:50:31.642Z,97836.19
2022-08-09T14:53:01.550Z,97850.69
2022-08-09T14:55:29.294Z,97823.34
2022-08-09T14:58:05.214Z,97828.97
2022-08-09T15:00:35.215Z,97823.44
2022-08-09T15:03:07.538Z,97808.47
2022-08-09T15:05:37.701Z,97815.19
2022-08-09T15:08:05.760Z,97804.00
2022-08-09T15:10:35.279Z,97819.34
2022-08-09T15:13:03.864Z,97814.56
2022-08-09T15:15:34.501Z,97810.66
2022-08-09T15:18:14.132Z,97802.66
2022-08-09T15:21:57.165Z,97807.44
2022-08-09T15:24:01.905Z,97800.47
2022-08-09T15:26:30.736Z,97805.03
2022-08-09T15:29:04.026Z,97800.69
2022-08-09T15:31:41.915Z,97804.38
2022-08-09T15:34:31.774Z,97808.13
2022-08-09T15:36:59.173Z,97826.94
2022-08-09T15:39:34.681Z,97814.25
2022-08-09T15:42:04.706Z,97808.88
2022-08-09T15:44:34.056Z,97788.03
2022-08-09T15:47:01.638Z,97793.53
2022-08-09T15:49:31.190Z,97791.38
2022-08-09T15:52:04.675Z,97793.38
2022-08-09T15:54:44.916Z,97780.41
2022-08-09T15:57:19.083Z,97787.53
2022-08-09T16:00:08.642Z,97788.28
2022-08-09T16:02:38.455Z,97782.13
2022-08-09T16:05:09.083Z,97785.66
2022-08-09T16:07:39.481Z,97791.16
2022-08-09T16:10:38.591Z,97796.19
2022-08-09T16:13:01.552Z,97794.69
2022-08-09T16:16:11.129Z,97799.69
2022-08-09T16:18:16.573Z,97797.16
2022-08-09T16:20:43.984Z,97799.22
2022-08-09T16:23:14.207Z,97798.84
2022-08-09T16:25:49.811Z,97799.72
2022-08-09T16:28:17.271Z,97800.75
2022-08-09T16:30:44.813Z,97805.38
2022-08-09T16:33:15.967Z,97811.69
2022-08-09T16:35:57.506Z,97814.66
2022-08-09T16:38:27.623Z,97812.78
2022-08-09T16:40:56.944Z,97824.34
2022-08-09T16:43:26.479Z,97823.19
2022-08-09T16:45:54.412Z,97826.16
2022-08-09T16:48:39.301Z,97828.06
2022-08-09T16:51:14.889Z,97824.31
2022-08-09T16:54:24.877Z,97826.47
2022-08-09T16:56:36.420Z,97822.91
2022-08-09T16:59:06.868Z,97835.94
2022-08-09T17:01:38.803Z,97840.00
2022-08-09T17:04:06.608Z,97842.00
2022-08-09T17:08:41.483Z,97840.06
2022-08-09T17:09:44.476Z,97840.63
2022-08-09T17:12:09.934Z,97836.69
2022-08-09T17:14:37.542Z,97841.72
2022-08-09T17:17:12.854Z,97857.56
2022-08-09T17:20:30.609Z,97846.91
2022-08-09T17:22:50.254Z,97845.53
2022-08-09T17:25:22.118Z,97856.88
2022-08-09T17:27:54.597Z,97857.94
2022-08-09T17:30:32.798Z,97855.31
2022-08-09T17:33:05.336Z,97854.41
2022-08-09T17:35:35.618Z,97865.75
2022-08-09T17:38:11.944Z,97876.78
2022-08-09T17:40:42.502Z,97876.78
2022-08-09T17:43:33.930Z,97876.44
2022-08-09T17:46:06.853Z,97878.22
2022-08-09T17:48:51.973Z,97880.69
2022-08-09T17:51:22.065Z,97897.56
2022-08-09T17:53:52.049Z,97891.41
2022-08-09T17:56:27.680Z,97898.84
2022-08-09T17:58:58.474Z,97907.69
2022-08-09T18:01:57.988Z,97922.09
2022-08-09T18:04:16.361Z,97927.34
2022-08-09T18:06:54.041Z,97927.53
2022-08-09T18:09:40.122Z,97942.38
2022-08-09T18:12:19.835Z,97946.78
2022-08-09T18:14:54.409Z,97959.97
2022-08-09T18:17:27.197Z,97952.94
2022-08-09T18:20:54.576Z,97957.63
2022-08-09T18:23:04.835Z,97956.22
2022-08-09T18:25:53.556Z,97967.25
2022-08-09T18:30:42.690Z,97980.16
2022-08-09T18:31:13.113Z,97978.31
2022-08-09T18:33:40.874Z,97987.31
2022-08-09T18:36:14.496Z,97983.72
2022-08-09T18:38:57.501Z,97988.63
2022-08-09T18:41:28.170Z,97988.78
2022-08-09T18:43:55.761Z,98004.50
2022-08-09T18:46:48.616Z,98006.03
2022-08-09T18:49:10.750Z,98004.84
2022-08-09T18:51:38.508Z,98011.41
2022-08-09T18:54:29.699Z,98013.59
2022-08-09T18:57:05.345Z,98010.38
2022-08-09T18:59:37.453Z,98016.66
2022-08-09T19:02:18.492Z,98024.97
2022-08-09T19:04:47.419Z,98032.00
2022-08-09T19:07:28.684Z,98030.16
2022-08-09T19:10:14.709Z,98017.81
2022-08-09T19:12:51.347Z,98022.16
2022-08-09T19:15:34.271Z,98029.28
2022-08-09T19:18:02.138Z,98033.13
2022-08-09T19:20:34.069Z,98034.56
2022-08-09T19:23:08.290Z,98047.31
2022-08-09T19:26:02.114Z,98043.13
2022-08-09T19:28:33.346Z,98041.19
2022-08-09T19:31:00.295Z,98040.00
2022-08-09T19:33:28.124Z,98042.19
2022-08-09T19:35:56.847Z,98059.66
2022-08-09T19:38:27.359Z,98041.41
2022-08-09T19:40:55.295Z,98060.66
2022-08-09T19:44:01.721Z,98070.78
2022-08-09T19:46:14.392Z,98065.31
2022-08-09T19:49:01.891Z,98058.41
2022-08-09T19:51:30.943Z,98076.09
2022-08-09T19:54:00.118Z,98078.63
2022-08-09T19:56:29.490Z,98079.38
2022-08-09T19:59:39.708Z,98078.31
2022-08-09T20:02:03.073Z,98082.03
2022-08-09T20:04:40.545Z,98083.72
2022-08-09T20:07:21.368Z,98097.19
2022-08-09T20:09:50.230Z,98092.72
2022-08-09T20:12:31.838Z,98082.50
2022-08-09T20:16:31.823Z,98083.44
2022-08-09T20:17:54.951Z,98082.13
2022-08-09T20:20:24.932Z,98084.75
2022-08-09T20:22:56.312Z,98090.91
2022-08-09T20:25:24.152Z,98094.59
2022-08-09T20:27:53.025Z,98078.41
2022-08-09T20:30:25.062Z,98080.53
2022-08-09T20:32:53.044Z,98099.94
2022-08-09T20:35:21.733Z,98064.63
2022-08-09T20:38:22.316Z,98100.00
2022-08-09T20:40:37.615Z,98097.13
2022-08-09T20:43:18.835Z,98096.66
2022-08-09T20:45:59.668Z,98127.81
2022-08-09T20:48:31.066Z,98104.34
2022-08-09T20:51:00.296Z,98112.34
2022-08-09T20:53:36.519Z,98135.38
2022-08-09T20:56:20.529Z,98123.50
2022-08-09T20:58:50.160Z,98124.63
2022-08-09T21:01:34.073Z,98119.28
2022-08-09T21:05:48.510Z,98132.75
2022-08-09T21:06:52.885Z,98123.03
2022-08-09T21:09:38.146Z,98123.09
2022-08-09T21:14:40.330Z,98140.88
2022-08-09T21:18:20.691Z,98122.47
2022-08-09T21:20:17.973Z,98122.94
2022-08-09T21:22:53.996Z,98128.72
2022-08-09T21:25:44.243Z,98108.59
2022-08-09T21:28:36.189Z,98111.03
2022-08-09T21:31:16.131Z,98107.84
2022-08-09T21:33:51.009Z,98118.88
2022-08-09T21:36:27.930Z,98123.31
2022-08-09T21:38:59.209Z,98122.56
2022-08-09T21:42:04.514Z,98120.63
2022-08-09T21:44:33.483Z,98119.31
2022-08-09T21:47:05.348Z,98130.13
2022-08-09T21:49:40.149Z,98138.22
2022-08-09T21:52:14.773Z,98136.72
2022-08-09T21:54:56.807Z,98135.63
2022-08-09T21:57:38.894Z,98126.31
2022-08-09T22:00:32.548Z,98138.56
2022-08-09T22:03:19.762Z,98124.91
2022-08-09T22:05:54.157Z,98133.84
2022-08-09T22:08:24.677Z,98131.75
2022-08-09T22:11:49.991Z,98115.47
2022-08-09T22:13:43.240Z,98120.97
2022-08-09T22:16:12.190Z,98116.91
2022-08-09T22:18:53.139Z,98125.59
2022-08-09T22:21:49.766Z,98123.44
2022-08-09T22:24:21.026Z,98129.19
2022-08-09T22:26:54.561Z,98126.19
2022-08-09T22:29:28.761Z,98136.41
2022-08-09T22:32:29.394Z,98137.44
2022-08-09T22:35:02.435Z,98128.13
2022-08-09T22:37:40.448Z,98128.13
2022-08-09T22:40:10.589Z,98132.56
2022-08-09T22:42:47.746Z,98129.78
2022-08-09T22:48:11.732Z,98133.44
2022-08-09T22:48:15.374Z,98131.28
2022-08-09T22:50:52.997Z,98124.84
2022-08-09T22:53:21.072Z,98126.16
2022-08-09T22:56:30.373Z,98133.84
2022-08-09T22:58:37.648Z,98141.94
2022-08-09T23:01:06.112Z,98141.53
2022-08-09T23:04:03.378Z,98128.22
2022-08-09T23:06:35.735Z,98137.38
2022-08-09T23:09:07.003Z,98138.91
2022-08-09T23:11:34.610Z,98135.28
2022-08-09T23:14:03.962Z,98134.06
2022-08-09T23:16:37.077Z,98152.13
2022-08-09T23:19:05.300Z,98137.06
2022-08-09T23:21:35.181Z,98147.69
2022-08-09T23:24:07.306Z,98136.28
2022-08-09T23:26:36.268Z,98139.72
2022-08-09T23:29:10.086Z,98134.22
2022-08-09T23:31:42.142Z,98130.38
2022-08-09T23:34:11.666Z,98131.69
2022-08-09T23:36:39.249Z,98131.47
2022-08-09T23:39:08.005Z,98133.16
2022-08-09T23:41:36.440Z,98134.25
2022-08-09T23:44:04.205Z,98133.16
2022-08-09T23:46:32.551Z,98126.81
2022-08-09T23:49:00.940Z,98134.66
2022-08-09T23:51:29.065Z,98143.13
2022-08-09T23:54:02.371Z,98134.25
2022-08-09T23:56:53.377Z,98139.31
2022-08-09T23:59:20.497Z,98131.69
